Time,TemperatureF,DewpointF,PressureIn,WindDirection,WindDirectionDegrees,WindSpeedMPH,WindSpeedGustMPH,Humidity,HourlyPrecipIn,Conditions,Clouds,dailyrainin,SoftwareType,DateUTC
2013-01-13 00:02:00,53.1,45.9,30.12,South,180,1.7,2.2,77,0.00,,,0.00,,2013-01-12 23:02:00,
2013-01-13 00:07:00,53.1,45.9,30.12,South,180,2.2,2.2,77,0.00,,,0.00,,2013-01-12 23:07:00,
2013-01-13 00:12:00,53.1,45.9,30.12,SE,135,2.2,3.1,77,0.00,,,0.00,,2013-01-12 23:12:00,
2013-01-13 00:22:00,53.1,45.9,30.12,SE,135,1.3,3.1,77,0.00,,,0.00,,2013-01-12 23:22:00,
2013-01-13 00:27:00,52.9,46.0,30.12,SE,135,1.3,1.7,78,0.00,,,0.00,,2013-01-12 23:27:00,
2013-01-13 00:32:00,53.1,46.2,30.12,SE,135,1.3,1.7,78,0.00,,,0.00,,2013-01-12 23:32:00,
2013-01-13 00:37:00,53.2,46.4,30.12,SE,135,2.2,2.2,78,0.00,,,0.00,,2013-01-12 23:37:00,
2013-01-13 00:42:00,53.2,46.4,30.12,SE,135,1.7,2.2,78,0.00,,,0.00,,2013-01-12 23:42:00,
2013-01-13 00:47:00,53.2,46.4,30.12,SE,135,1.7,2.2,78,0.00,,,0.00,,2013-01-12 23:47:00,
2013-01-13 00:52:00,52.9,46.0,30.12,SE,135,2.6,2.6,78,0.00,,,0.00,,2013-01-12 23:52:00,
2013-01-13 00:57:00,52.7,46.2,30.09,East,90,1.3,3.5,79,0.00,,,0.00,,2013-01-12 23:57:00,
2013-01-13 01:07:00,52.7,46.2,30.12,East,90,3.1,3.5,79,0.00,,,0.00,,2013-01-13 00:07:00,
2013-01-13 01:12:00,52.7,46.6,30.12,East,90,2.6,3.5,80,0.00,,,0.00,,2013-01-13 00:12:00,
2013-01-13 01:17:00,52.5,46.4,30.12,East,90,1.7,2.2,80,0.00,,,0.00,,2013-01-13 00:17:00,
2013-01-13 01:22:00,52.5,46.4,30.12,East,90,2.2,2.2,80,0.00,,,0.00,,2013-01-13 00:22:00,
2013-01-13 01:27:00,52.7,46.6,30.09,East,90,2.2,2.2,80,0.00,,,0.00,,2013-01-13 00:27:00,
2013-01-13 01:32:00,52.5,46.4,30.09,East,90,2.6,2.6,80,0.00,,,0.00,,2013-01-13 00:32:00,
2013-01-13 01:37:00,52.5,46.4,30.12,East,90,2.6,2.6,80,0.00,,,0.00,,2013-01-13 00:37:00,
2013-01-13 01:42:00,52.5,46.4,30.12,East,90,1.7,3.5,80,0.00,,,0.00,,2013-01-13 00:42:00,
2013-01-13 01:47:00,52.3,46.2,30.12,East,90,3.1,3.5,80,0.00,,,0.00,,2013-01-13 00:47:00,
2013-01-13 01:52:00,52.3,46.2,30.12,ESE,112,2.2,3.1,80,0.00,,,0.00,,2013-01-13 00:52:00,
2013-01-13 01:57:00,52.2,46.0,30.09,SE,135,3.1,3.1,80,0.00,,,0.00,,2013-01-13 00:57:00,
2013-01-13 02:02:00,52.2,46.0,30.09,East,90,2.2,4.4,80,0.00,,,0.00,,2013-01-13 01:02:00,
2013-01-13 02:07:00,52.2,46.4,30.12,East,90,2.2,4.4,81,0.00,,,0.00,,2013-01-13 01:07:00,
2013-01-13 02:17:00,52.2,46.4,30.12,East,90,4.0,4.4,81,0.00,,,0.00,,2013-01-13 01:17:00,
2013-01-13 02:22:00,52.2,46.8,30.12,East,90,4.0,4.4,82,0.00,,,0.00,,2013-01-13 01:22:00,
2013-01-13 02:27:00,52.2,46.8,30.12,East,90,4.9,4.9,82,0.00,,,0.00,,2013-01-13 01:27:00,
2013-01-13 02:32:00,52.2,47.1,30.12,East,90,4.4,4.4,83,0.00,,,0.00,,2013-01-13 01:32:00,
2013-01-13 02:37:00,52.2,47.1,30.09,East,90,3.1,4.4,83,0.00,,,0.00,,2013-01-13 01:37:00,
2013-01-13 02:42:00,52.3,47.5,30.09,East,90,4.0,4.4,84,0.00,,,0.00,,2013-01-13 01:42:00,
2013-01-13 02:47:00,52.5,47.7,30.09,East,90,0.4,4.4,84,0.00,,,0.00,,2013-01-13 01:47:00,
2013-01-13 02:52:00,52.5,47.5,30.09,East,90,1.3,4.4,83,0.00,,,0.00,,2013-01-13 01:52:00,
2013-01-13 02:57:00,52.5,47.7,30.09,East,90,3.5,4.4,84,0.00,,,0.00,,2013-01-13 01:57:00,
2013-01-13 03:02:00,52.3,47.5,30.09,East,90,3.1,4.4,84,0.00,,,0.00,,2013-01-13 02:02:00,
2013-01-13 03:07:00,51.8,46.9,30.09,East,90,2.2,4.4,84,0.00,,,0.00,,2013-01-13 02:07:00,
2013-01-13 03:12:00,51.8,46.9,30.09,SE,135,2.2,2.6,84,0.07,,,0.07,,2013-01-13 02:12:00,
2013-01-13 03:17:00,52.0,47.5,30.09,SE,135,4.4,4.4,85,0.09,,,0.09,,2013-01-13 02:17:00,
2013-01-13 03:22:00,52.0,47.5,30.09,SE,135,4.4,5.8,85,0.09,,,0.09,,2013-01-13 02:22:00,
2013-01-13 03:27:00,52.0,47.5,30.09,SE,135,0.8,9.3,85,0.09,,,0.09,,2013-01-13 02:27:00,
2013-01-13 03:32:00,51.8,47.3,30.09,East,90,2.6,6.2,85,0.11,,,0.11,,2013-01-13 02:32:00,
2013-01-13 03:37:00,52.2,48.0,30.12,East,90,3.5,6.2,86,0.11,,,0.11,,2013-01-13 02:37:00,
2013-01-13 03:42:00,52.3,48.2,30.12,East,90,3.5,4.9,86,0.11,,,0.11,,2013-01-13 02:42:00,
2013-01-13 03:47:00,52.3,48.2,30.09,East,90,4.0,4.0,86,0.11,,,0.11,,2013-01-13 02:47:00,
2013-01-13 03:52:00,52.3,48.2,30.09,SE,135,3.1,3.5,86,0.11,,,0.11,,2013-01-13 02:52:00,
2013-01-13 03:57:00,52.3,48.2,30.09,SE,135,2.6,3.5,86,0.13,,,0.13,,2013-01-13 02:57:00,
2013-01-13 04:02:00,52.2,48.0,30.09,SE,135,4.0,6.2,86,0.03,,,0.16,,2013-01-13 03:02:00,
2013-01-13 04:07:00,52.2,48.0,30.09,SE,135,4.0,8.0,86,0.03,,,0.16,,2013-01-13 03:07:00,
2013-01-13 04:12:00,52.2,48.0,30.09,SE,135,0.8,0.0,86,0.05,,,0.18,,2013-01-13 03:12:00,
2013-01-13 04:17:00,52.2,48.0,30.06,East,90,2.2,2.6,86,0.05,,,0.18,,2013-01-13 03:17:00,
2013-01-13 04:22:00,52.2,48.0,30.06,ESE,112,3.5,5.3,86,0.05,,,0.18,,2013-01-13 03:22:00,
2013-01-13 04:27:00,52.0,47.8,30.06,NE,45,3.5,8.0,86,0.05,,,0.18,,2013-01-13 03:27:00,
2013-01-13 04:32:00,52.0,47.8,30.06,East,90,2.6,2.6,86,0.05,,,0.18,,2013-01-13 03:32:00,
2013-01-13 04:37:00,52.0,47.8,30.06,East,90,3.1,4.0,86,0.05,,,0.18,,2013-01-13 03:37:00,
2013-01-13 04:42:00,51.8,47.7,30.06,East,90,2.6,4.0,86,0.05,,,0.18,,2013-01-13 03:42:00,
2013-01-13 04:47:00,51.8,47.7,30.06,East,90,7.6,8.5,86,0.05,,,0.18,,2013-01-13 03:47:00,
2013-01-13 04:52:00,51.8,47.7,30.06,East,90,6.2,8.9,86,0.05,,,0.18,,2013-01-13 03:52:00,
2013-01-13 04:57:00,51.6,47.5,30.06,ENE,67,3.5,4.0,86,0.05,,,0.18,,2013-01-13 03:57:00,
2013-01-13 05:02:00,51.6,47.8,30.06,East,90,5.8,5.8,87,0.00,,,0.18,,2013-01-13 04:02:00,
2013-01-13 05:07:00,51.6,47.8,30.06,East,90,6.2,11.6,87,0.00,,,0.18,,2013-01-13 04:07:00,
2013-01-13 05:12:00,51.6,47.5,30.06,SE,135,4.4,5.3,86,0.00,,,0.18,,2013-01-13 04:12:00,
2013-01-13 05:17:00,51.6,47.8,30.06,SE,135,4.0,7.6,87,0.00,,,0.18,,2013-01-13 04:17:00,
2013-01-13 05:22:00,51.8,48.0,30.06,SE,135,4.0,4.0,87,0.00,,,0.18,,2013-01-13 04:22:00,
2013-01-13 05:27:00,51.8,48.0,30.03,East,90,4.0,4.0,87,0.02,,,0.20,,2013-01-13 04:27:00,
2013-01-13 05:32:00,51.8,48.0,30.03,NE,45,2.6,4.9,87,0.02,,,0.20,,2013-01-13 04:32:00,
2013-01-13 05:37:00,51.8,48.0,30.03,East,90,3.1,4.0,87,0.02,,,0.20,,2013-01-13 04:37:00,
2013-01-13 05:42:00,51.8,48.0,30.03,East,90,2.6,4.0,87,0.02,,,0.20,,2013-01-13 04:42:00,
2013-01-13 05:47:00,51.8,48.0,30.03,East,90,3.5,3.5,87,0.02,,,0.20,,2013-01-13 04:47:00,
2013-01-13 05:52:00,51.8,47.7,30.03,East,90,4.0,4.0,86,0.02,,,0.20,,2013-01-13 04:52:00,
2013-01-13 05:57:00,51.6,47.8,30.03,SE,135,4.9,4.9,87,0.02,,,0.20,,2013-01-13 04:57:00,
2013-01-13 06:03:00,51.6,47.8,30.03,SE,135,4.4,4.4,87,0.00,,,0.20,,2013-01-13 05:03:00,
2013-01-13 06:07:00,51.6,47.5,30.00,SE,135,6.7,15.6,86,0.00,,,0.20,,2013-01-13 05:07:00,
2013-01-13 06:12:00,51.6,47.8,30.00,East,90,7.6,9.8,87,0.02,,,0.22,,2013-01-13 05:12:00,
2013-01-13 06:17:00,51.6,47.8,30.00,East,90,5.8,13.4,87,0.02,,,0.22,,2013-01-13 05:17:00,
2013-01-13 06:22:00,51.6,47.8,30.00,East,90,4.4,0.0,87,0.02,,,0.22,,2013-01-13 05:22:00,
2013-01-13 06:27:00,51.6,47.8,30.00,East,90,4.4,0.0,87,0.02,,,0.22,,2013-01-13 05:27:00,
2013-01-13 06:32:00,51.6,47.8,30.00,SE,135,4.0,0.0,87,0.02,,,0.22,,2013-01-13 05:32:00,
2013-01-13 06:37:00,51.6,47.8,30.00,East,90,3.5,4.0,87,0.02,,,0.22,,2013-01-13 05:37:00,
2013-01-13 06:42:00,51.6,47.8,30.00,SE,135,2.2,3.5,87,0.02,,,0.22,,2013-01-13 05:42:00,
2013-01-13 06:47:00,51.6,47.5,30.00,SE,135,1.7,3.5,86,0.02,,,0.22,,2013-01-13 05:47:00,
2013-01-13 06:52:00,51.6,47.8,30.00,East,90,2.2,2.6,87,0.02,,,0.22,,2013-01-13 05:52:00,
2013-01-13 06:57:00,51.6,47.8,30.00,ENE,67,2.6,3.5,87,0.02,,,0.22,,2013-01-13 05:57:00,
2013-01-13 07:02:00,51.8,47.7,30.00,ENE,67,3.1,4.0,86,0.00,,,0.22,,2013-01-13 06:02:00,
2013-01-13 07:07:00,51.8,48.0,30.00,East,90,3.1,4.9,87,0.00,,,0.22,,2013-01-13 06:07:00,
2013-01-13 07:12:00,51.8,47.7,30.00,East,90,2.6,4.9,86,0.00,,,0.22,,2013-01-13 06:12:00,
2013-01-13 07:17:00,51.8,47.7,30.00,East,90,2.6,3.1,86,0.00,,,0.22,,2013-01-13 06:17:00,
2013-01-13 07:22:00,52.0,48.2,30.00,East,90,1.3,3.1,87,0.00,,,0.22,,2013-01-13 06:22:00,
2013-01-13 07:27:00,51.8,47.7,30.00,SE,135,1.7,2.2,86,0.00,,,0.22,,2013-01-13 06:27:00,
2013-01-13 07:32:00,52.0,48.2,30.00,East,90,2.2,3.5,87,0.00,,,0.22,,2013-01-13 06:32:00,
2013-01-13 07:37:00,51.8,47.7,30.00,East,90,1.7,5.3,86,0.00,,,0.22,,2013-01-13 06:37:00,
2013-01-13 07:42:00,52.0,48.2,30.00,East,90,3.1,4.4,87,0.00,,,0.22,,2013-01-13 06:42:00,
2013-01-13 07:47:00,52.0,47.8,30.00,East,90,2.6,2.6,86,0.00,,,0.22,,2013-01-13 06:47:00,
2013-01-13 07:52:00,52.0,47.8,30.00,East,90,3.5,3.5,86,0.00,,,0.22,,2013-01-13 06:52:00,
2013-01-13 07:57:00,52.2,48.0,30.00,East,90,3.5,5.3,86,0.03,,,0.25,,2013-01-13 06:57:00,
2013-01-13 08:02:00,52.0,47.8,30.00,East,90,3.5,5.3,86,0.00,,,0.25,,2013-01-13 07:02:00,
2013-01-13 08:07:00,52.0,47.8,30.00,East,90,4.9,4.9,86,0.00,,,0.25,,2013-01-13 07:07:00,
2013-01-13 08:12:00,51.8,47.7,30.00,East,90,4.4,4.9,86,0.00,,,0.25,,2013-01-13 07:12:00,
2013-01-13 08:17:00,51.6,47.5,30.00,East,90,4.9,4.9,86,0.00,,,0.25,,2013-01-13 07:17:00,
2013-01-13 08:22:00,51.4,47.3,30.00,East,90,3.5,4.9,86,0.00,,,0.25,,2013-01-13 07:22:00,
2013-01-13 08:27:00,51.4,47.3,30.00,East,90,3.1,4.0,86,0.00,,,0.25,,2013-01-13 07:27:00,
2013-01-13 08:32:00,51.4,47.3,30.00,NE,45,3.1,4.4,86,0.00,,,0.25,,2013-01-13 07:32:00,
2013-01-13 08:37:00,51.4,47.3,30.00,NE,45,3.1,3.1,86,0.00,,,0.25,,2013-01-13 07:37:00,
2013-01-13 08:42:00,51.4,47.3,30.00,NE,45,4.0,5.3,86,0.00,,,0.25,,2013-01-13 07:42:00,
2013-01-13 08:47:00,51.4,47.3,30.00,NE,45,3.5,4.9,86,0.00,,,0.25,,2013-01-13 07:47:00,
2013-01-13 08:52:00,51.4,47.3,30.00,ENE,67,3.5,4.4,86,0.00,,,0.25,,2013-01-13 07:52:00,
2013-01-13 08:57:00,51.4,47.3,30.00,NE,45,3.5,4.4,86,0.00,,,0.25,,2013-01-13 07:57:00,
2013-01-13 09:02:00,51.6,47.5,30.00,East,90,2.2,4.0,86,0.00,,,0.25,,2013-01-13 08:02:00,
2013-01-13 09:07:00,51.6,47.5,30.00,ENE,67,2.6,2.6,86,0.00,,,0.25,,2013-01-13 08:07:00,
2013-01-13 09:12:00,51.8,47.7,30.00,NNE,22,1.3,2.6,86,0.00,,,0.25,,2013-01-13 08:12:00,
2013-01-13 09:17:00,51.8,47.7,30.00,NE,45,2.6,4.0,86,0.00,,,0.25,,2013-01-13 08:17:00,
2013-01-13 09:22:00,52.0,47.8,30.00,East,90,3.5,4.4,86,0.00,,,0.25,,2013-01-13 08:22:00,
2013-01-13 09:27:00,52.2,48.0,30.00,NE,45,2.6,3.5,86,0.00,,,0.25,,2013-01-13 08:27:00,
2013-01-13 09:32:00,52.2,48.0,30.00,NE,45,2.2,3.5,86,0.00,,,0.25,,2013-01-13 08:32:00,
2013-01-13 09:37:00,52.5,48.4,30.00,NE,45,1.7,3.5,86,0.00,,,0.25,,2013-01-13 08:37:00,
2013-01-13 09:42:00,52.7,48.6,30.00,SE,135,2.6,2.6,86,0.00,,,0.25,,2013-01-13 08:42:00,
2013-01-13 09:47:00,52.9,48.7,29.97,East,90,4.9,6.2,86,0.00,,,0.25,,2013-01-13 08:47:00,
2013-01-13 09:52:00,53.4,49.3,29.97,East,90,2.2,4.0,86,0.00,,,0.25,,2013-01-13 08:52:00,
2013-01-13 09:57:00,53.6,49.5,30.00,SE,135,2.6,3.1,86,0.00,,,0.25,,2013-01-13 08:57:00,
2013-01-13 10:02:00,53.6,49.5,30.00,East,90,2.6,4.0,86,0.00,,,0.25,,2013-01-13 09:02:00,
2013-01-13 10:07:00,53.8,49.6,29.97,East,90,2.2,4.0,86,0.00,,,0.25,,2013-01-13 09:07:00,
2013-01-13 10:17:00,54.1,50.0,29.97,East,90,3.1,4.9,86,0.00,,,0.25,,2013-01-13 09:17:00,
2013-01-13 10:22:00,54.5,50.4,29.97,SE,135,1.7,3.1,86,0.00,,,0.25,,2013-01-13 09:22:00,
2013-01-13 10:27:00,54.9,50.7,29.97,SE,135,2.6,3.1,86,0.00,,,0.25,,2013-01-13 09:27:00,
2013-01-13 10:32:00,55.2,51.1,29.97,SE,135,3.1,3.1,86,0.00,,,0.25,,2013-01-13 09:32:00,
2013-01-13 10:37:00,55.4,50.9,29.97,SE,135,3.1,8.9,85,0.00,,,0.25,,2013-01-13 09:37:00,
2013-01-13 10:42:00,55.8,51.3,29.97,SE,135,4.0,6.2,85,0.00,,,0.25,,2013-01-13 09:42:00,
2013-01-13 10:47:00,55.9,51.1,29.97,SE,135,2.2,2.2,84,0.00,,,0.25,,2013-01-13 09:47:00,
2013-01-13 10:52:00,56.1,50.9,29.97,SE,135,4.0,4.0,83,0.00,,,0.25,,2013-01-13 09:52:00,
2013-01-13 10:57:00,56.3,51.1,30.00,SE,135,4.4,4.4,83,0.00,,,0.25,,2013-01-13 09:57:00,
2013-01-13 11:02:00,56.3,51.1,30.00,ESE,112,3.5,3.5,83,0.00,,,0.25,,2013-01-13 10:02:00,
2013-01-13 11:07:00,56.3,50.7,30.00,ESE,112,4.4,4.4,82,0.00,,,0.25,,2013-01-13 10:07:00,
2013-01-13 11:12:00,56.5,50.9,30.00,East,90,3.5,5.3,82,0.00,,,0.25,,2013-01-13 10:12:00,
2013-01-13 11:17:00,56.5,50.9,29.97,East,90,5.8,5.8,82,0.00,,,0.25,,2013-01-13 10:17:00,
2013-01-13 11:22:00,56.3,50.7,29.97,SE,135,7.6,9.3,82,0.00,,,0.25,,2013-01-13 10:22:00,
2013-01-13 11:27:00,55.9,50.4,30.00,SE,135,5.8,0.0,82,0.00,,,0.25,,2013-01-13 10:27:00,
2013-01-13 11:32:00,55.4,49.8,30.00,SE,135,6.7,8.0,82,0.00,,,0.25,,2013-01-13 10:32:00,
2013-01-13 11:37:00,55.2,50.0,29.97,SE,135,4.9,8.0,83,0.00,,,0.25,,2013-01-13 10:37:00,
2013-01-13 11:42:00,55.0,50.2,29.97,SE,135,6.2,11.6,84,0.00,,,0.25,,2013-01-13 10:42:00,
2013-01-13 11:47:00,54.9,50.0,29.97,SE,135,5.8,5.8,84,0.00,,,0.25,,2013-01-13 10:47:00,
2013-01-13 11:52:00,54.9,50.0,29.97,East,90,6.2,11.6,84,0.00,,,0.25,,2013-01-13 10:52:00,
2013-01-13 11:57:00,54.9,50.0,29.97,East,90,4.0,5.3,84,0.00,,,0.25,,2013-01-13 10:57:00,
2013-01-13 12:02:00,55.0,50.5,29.97,SE,135,4.4,5.8,85,0.00,,,0.25,,2013-01-13 11:02:00,
2013-01-13 12:08:00,55.0,50.5,29.97,ESE,112,2.6,7.6,85,0.00,,,0.25,,2013-01-13 11:08:00,
2013-01-13 12:17:00,55.2,50.4,29.94,East,90,5.3,8.0,84,0.00,,,0.25,,2013-01-13 11:17:00,
2013-01-13 12:22:00,55.4,50.5,29.94,SE,135,3.1,4.9,84,0.00,,,0.25,,2013-01-13 11:22:00,
2013-01-13 12:27:00,55.6,50.4,29.94,SE,135,7.1,7.1,83,0.00,,,0.25,,2013-01-13 11:27:00,
2013-01-13 12:32:00,55.8,50.5,29.94,ESE,112,5.3,10.7,83,0.00,,,0.25,,2013-01-13 11:32:00,
2013-01-13 12:37:00,55.9,50.7,29.94,SE,135,3.5,3.5,83,0.00,,,0.25,,2013-01-13 11:37:00,
2013-01-13 12:42:00,56.1,50.5,29.94,East,90,4.0,4.0,82,0.00,,,0.25,,2013-01-13 11:42:00,
2013-01-13 12:47:00,56.1,50.4,29.94,SE,135,7.6,11.1,81,0.00,,,0.25,,2013-01-13 11:47:00,
2013-01-13 12:52:00,56.1,50.0,29.94,SE,135,7.6,9.3,80,0.00,,,0.25,,2013-01-13 11:52:00,
2013-01-13 12:57:00,56.1,50.0,29.94,SE,135,6.2,8.0,80,0.00,,,0.25,,2013-01-13 11:57:00,
2013-01-13 13:02:00,56.1,49.6,29.94,ESE,112,6.2,8.9,79,0.00,,,0.25,,2013-01-13 12:02:00,
2013-01-13 13:07:00,56.1,50.0,29.94,SE,135,4.4,4.9,80,0.00,,,0.25,,2013-01-13 12:07:00,
2013-01-13 13:12:00,56.1,50.0,29.94,SE,135,7.6,11.1,80,0.00,,,0.25,,2013-01-13 12:12:00,
2013-01-13 13:17:00,56.1,50.0,29.91,East,90,8.0,9.3,80,0.00,,,0.25,,2013-01-13 12:17:00,
2013-01-13 13:22:00,56.1,50.0,29.91,East,90,7.1,14.3,80,0.00,,,0.25,,2013-01-13 12:22:00,
2013-01-13 13:27:00,56.3,50.2,29.91,East,90,11.1,14.3,80,0.00,,,0.25,,2013-01-13 12:27:00,
2013-01-13 13:32:00,56.5,50.4,29.91,East,90,4.9,10.7,80,0.00,,,0.25,,2013-01-13 12:32:00,
2013-01-13 13:37:00,56.5,50.4,29.91,SE,135,7.6,0.0,80,0.00,,,0.25,,2013-01-13 12:37:00,
2013-01-13 13:42:00,56.7,50.5,29.91,SE,135,6.7,10.7,80,0.00,,,0.25,,2013-01-13 12:42:00,
2013-01-13 13:47:00,56.7,50.5,29.88,SE,135,7.6,12.9,80,0.00,,,0.25,,2013-01-13 12:47:00,
2013-01-13 13:52:00,56.7,50.5,29.88,SE,135,9.8,10.7,80,0.00,,,0.25,,2013-01-13 12:52:00,
2013-01-13 13:57:00,56.8,50.7,29.88,SE,135,6.2,12.0,80,0.00,,,0.25,,2013-01-13 12:57:00,
2013-01-13 14:02:00,56.8,50.9,29.88,SE,135,6.7,8.0,81,0.00,,,0.25,,2013-01-13 13:02:00,
2013-01-13 14:07:00,56.8,50.9,29.88,East,90,7.6,10.2,81,0.00,,,0.25,,2013-01-13 13:07:00,
2013-01-13 14:12:00,56.8,50.9,29.88,East,90,7.6,8.0,81,0.00,,,0.25,,2013-01-13 13:12:00,
2013-01-13 14:17:00,56.7,50.7,29.88,NE,45,12.0,12.0,81,0.00,,,0.25,,2013-01-13 13:17:00,
2013-01-13 14:22:00,56.3,50.7,29.88,SE,135,10.7,11.6,82,0.02,,,0.27,,2013-01-13 13:22:00,
2013-01-13 14:27:00,56.1,50.5,29.88,ESE,112,5.8,13.4,82,0.02,,,0.27,,2013-01-13 13:27:00,
2013-01-13 14:32:00,55.9,50.7,29.88,East,90,8.5,9.8,83,0.04,,,0.29,,2013-01-13 13:32:00,
2013-01-13 14:37:00,55.9,50.7,29.88,NE,45,8.5,11.1,83,0.04,,,0.29,,2013-01-13 13:37:00,
2013-01-13 14:42:00,56.1,50.9,29.88,SE,135,11.1,11.1,83,0.04,,,0.29,,2013-01-13 13:42:00,
2013-01-13 14:47:00,56.1,51.3,29.91,SE,135,7.6,10.7,84,0.04,,,0.29,,2013-01-13 13:47:00,
2013-01-13 14:52:00,56.1,51.3,29.91,SE,135,7.1,8.5,84,0.04,,,0.29,,2013-01-13 13:52:00,
2013-01-13 14:57:00,56.3,51.4,29.88,SSE,157,4.9,8.0,84,0.04,,,0.29,,2013-01-13 13:57:00,
2013-01-13 15:02:00,56.5,51.6,29.88,South,180,4.0,8.0,84,0.00,,,0.29,,2013-01-13 14:02:00,
2013-01-13 15:07:00,56.7,51.8,29.88,SE,135,3.5,4.0,84,0.00,,,0.29,,2013-01-13 14:07:00,
2013-01-13 15:12:00,57.0,52.2,29.88,SE,135,3.5,5.8,84,0.00,,,0.29,,2013-01-13 14:12:00,
2013-01-13 15:17:00,57.4,52.5,29.91,SW,225,3.1,6.2,84,0.00,,,0.29,,2013-01-13 14:17:00,
2013-01-13 15:22:00,57.9,53.1,29.91,SSE,157,5.3,5.8,84,0.00,,,0.29,,2013-01-13 14:22:00,
2013-01-13 15:27:00,58.3,53.1,29.88,SSE,157,5.8,5.8,83,0.00,,,0.29,,2013-01-13 14:27:00,
2013-01-13 15:33:00,58.6,53.1,29.88,SE,135,5.3,7.6,82,0.00,,,0.29,,2013-01-13 14:33:00,
2013-01-13 15:37:00,58.8,52.9,29.91,SE,135,5.3,12.0,81,0.00,,,0.29,,2013-01-13 14:37:00,
2013-01-13 15:42:00,59.0,53.1,29.91,SE,135,4.4,4.4,81,0.00,,,0.29,,2013-01-13 14:42:00,
2013-01-13 15:48:00,58.8,52.9,29.91,SE,135,4.4,4.4,81,0.00,,,0.29,,2013-01-13 14:48:00,
2013-01-13 15:52:00,59.0,53.1,29.91,SE,135,5.8,5.8,81,0.00,,,0.29,,2013-01-13 14:52:00,
2013-01-13 15:58:00,58.8,52.9,29.88,SE,135,5.8,5.8,81,0.00,,,0.29,,2013-01-13 14:58:00,
2013-01-13 16:07:00,58.8,52.5,29.88,North,0,0.0,0.0,80,0.00,,,0.29,,2013-01-13 15:07:00,
2013-01-13 16:12:00,58.8,52.5,29.88,North,0,0.0,0.0,80,0.00,,,0.29,,2013-01-13 15:12:00,
2013-01-13 16:17:00,58.8,52.9,29.91,North,0,0.0,0.0,81,0.00,,,0.29,,2013-01-13 15:17:00,
2013-01-13 16:22:00,58.8,52.5,29.91,North,0,0.0,0.0,80,0.00,,,0.29,,2013-01-13 15:22:00,
2013-01-13 16:27:00,58.8,52.9,29.88,North,0,0.0,0.0,81,0.00,,,0.29,,2013-01-13 15:27:00,
2013-01-13 16:32:00,58.8,52.9,29.88,SE,135,4.4,4.4,81,0.00,,,0.29,,2013-01-13 15:32:00,
2013-01-13 16:38:00,58.6,52.7,29.88,SE,135,2.6,4.0,81,0.00,,,0.29,,2013-01-13 15:38:00,
2013-01-13 16:43:00,58.6,52.7,29.88,South,180,2.6,4.0,81,0.00,,,0.29,,2013-01-13 15:43:00,
2013-01-13 16:48:00,58.6,52.7,29.91,SE,135,3.1,4.9,81,0.00,,,0.29,,2013-01-13 15:48:00,
2013-01-13 16:53:00,58.6,52.7,29.91,SE,135,4.9,7.6,81,0.00,,,0.29,,2013-01-13 15:53:00,
2013-01-13 16:58:00,58.6,52.7,29.88,SE,135,4.0,4.4,81,0.00,,,0.29,,2013-01-13 15:58:00,
2013-01-13 17:03:00,58.6,52.7,29.88,SE,135,4.0,4.4,81,0.00,,,0.29,,2013-01-13 16:03:00,
2013-01-13 17:08:00,58.5,52.5,29.88,SE,135,3.5,4.4,81,0.00,,,0.29,,2013-01-13 16:08:00,
2013-01-13 17:13:00,58.5,52.5,29.88,SE,135,3.5,0.0,81,0.00,,,0.29,,2013-01-13 16:13:00,
2013-01-13 17:18:00,58.5,52.9,29.88,SE,135,3.5,4.0,82,0.00,,,0.29,,2013-01-13 16:18:00,
2013-01-13 17:23:00,58.5,52.9,29.88,SE,135,3.1,4.0,82,0.00,,,0.29,,2013-01-13 16:23:00,
2013-01-13 17:28:00,58.5,52.9,29.85,SE,135,4.9,7.6,82,0.00,,,0.29,,2013-01-13 16:28:00,
2013-01-13 17:33:00,58.6,53.1,29.85,SE,135,6.7,6.7,82,0.00,,,0.29,,2013-01-13 16:33:00,
2013-01-13 17:38:00,58.6,53.1,29.85,SE,135,6.2,6.2,82,0.00,,,0.29,,2013-01-13 16:38:00,
2013-01-13 17:43:00,58.8,53.2,29.85,SE,135,4.4,8.0,82,0.00,,,0.29,,2013-01-13 16:43:00,
2013-01-13 17:48:00,58.8,53.2,29.85,SE,135,4.4,8.0,82,0.00,,,0.29,,2013-01-13 16:48:00,
2013-01-13 17:53:00,58.8,53.2,29.85,SE,135,4.0,5.8,82,0.00,,,0.29,,2013-01-13 16:53:00,
2013-01-13 17:58:00,58.8,53.2,29.85,SE,135,4.4,7.6,82,0.00,,,0.29,,2013-01-13 16:58:00,
2013-01-13 18:03:00,59.0,53.4,29.85,South,180,4.4,6.2,82,0.00,,,0.29,,2013-01-13 17:03:00,
2013-01-13 18:08:00,59.0,53.1,29.88,SE,135,6.7,10.2,81,0.00,,,0.29,,2013-01-13 17:08:00,
2013-01-13 18:13:00,59.2,53.2,29.88,SE,135,6.7,10.2,81,0.00,,,0.29,,2013-01-13 17:13:00,
2013-01-13 18:18:00,59.4,53.4,29.88,SE,135,7.1,7.1,81,0.00,,,0.29,,2013-01-13 17:18:00,
2013-01-13 18:23:00,59.4,53.4,29.88,SE,135,4.9,4.9,81,0.00,,,0.29,,2013-01-13 17:23:00,
2013-01-13 18:28:00,59.4,53.4,29.82,SE,135,4.9,4.9,81,0.00,,,0.29,,2013-01-13 17:28:00,
2013-01-13 18:33:00,59.5,53.2,29.82,SE,135,6.7,10.7,80,0.00,,,0.29,,2013-01-13 17:33:00,
2013-01-13 18:38:00,59.5,53.6,29.85,SE,135,8.9,0.0,81,0.00,,,0.29,,2013-01-13 17:38:00,
2013-01-13 18:43:00,59.7,53.8,29.85,SE,135,7.1,0.0,81,0.00,,,0.29,,2013-01-13 17:43:00,
2013-01-13 18:48:00,59.7,54.1,29.85,SE,135,8.0,12.0,82,0.00,,,0.29,,2013-01-13 17:48:00,
2013-01-13 18:53:00,59.4,53.8,29.85,SE,135,8.5,12.0,82,0.00,,,0.29,,2013-01-13 17:53:00,
2013-01-13 18:58:00,58.3,52.0,29.85,SE,135,8.5,12.0,80,0.02,,,0.31,,2013-01-13 17:58:00,
2013-01-13 19:03:00,57.4,51.4,29.85,SE,135,8.5,12.0,81,0.02,,,0.33,,2013-01-13 18:03:00,
2013-01-13 19:08:00,57.2,51.3,29.88,North,0,0.0,0.0,81,0.02,,,0.33,,2013-01-13 18:08:00,
2013-01-13 19:13:00,57.2,51.6,29.88,North,0,0.0,0.0,82,0.02,,,0.33,,2013-01-13 18:13:00,
2013-01-13 19:18:00,57.0,51.8,29.88,North,0,0.0,0.0,83,0.02,,,0.33,,2013-01-13 18:18:00,
2013-01-13 19:23:00,57.0,51.8,29.88,North,0,0.0,0.0,83,0.02,,,0.33,,2013-01-13 18:23:00,
2013-01-13 19:28:00,56.8,51.6,29.82,North,0,0.0,0.0,83,0.02,,,0.33,,2013-01-13 18:28:00,
2013-01-13 19:33:00,56.8,51.6,29.82,North,0,0.0,0.0,83,0.02,,,0.33,,2013-01-13 18:33:00,
2013-01-13 19:38:00,56.8,51.6,29.85,North,0,0.0,0.0,83,0.02,,,0.33,,2013-01-13 18:38:00,
2013-01-13 19:43:00,56.7,51.4,29.85,North,0,0.0,0.0,83,0.02,,,0.33,,2013-01-13 18:43:00,
2013-01-13 19:48:00,56.7,51.4,29.85,North,0,0.0,0.0,83,0.02,,,0.33,,2013-01-13 18:48:00,
2013-01-13 19:53:00,56.5,51.6,29.85,North,0,0.0,0.0,84,0.02,,,0.33,,2013-01-13 18:53:00,
2013-01-13 19:58:00,56.5,51.6,29.85,North,0,0.0,0.0,84,0.02,,,0.33,,2013-01-13 18:58:00,
2013-01-13 20:03:00,56.5,51.6,29.85,North,0,0.0,0.0,84,0.00,,,0.33,,2013-01-13 19:03:00,
2013-01-13 20:08:00,56.5,51.6,29.85,North,0,0.0,0.0,84,0.00,,,0.33,,2013-01-13 19:08:00,
2013-01-13 20:13:00,57.4,53.1,29.85,North,0,0.0,0.0,86,0.03,,,0.35,,2013-01-13 19:13:00,
2013-01-13 20:18:00,58.1,53.8,29.85,SE,135,8.0,12.0,86,0.03,,,0.35,,2013-01-13 19:18:00,
2013-01-13 20:23:00,58.5,54.1,29.85,SE,135,8.0,12.0,86,0.03,,,0.35,,2013-01-13 19:23:00,
2013-01-13 20:28:00,58.6,54.1,29.85,SE,135,8.0,12.0,85,0.03,,,0.35,,2013-01-13 19:28:00,
2013-01-13 20:33:00,58.3,53.4,29.85,North,0,0.0,0.0,84,0.03,,,0.35,,2013-01-13 19:33:00,
2013-01-13 20:38:00,58.3,53.4,29.85,North,0,0.0,0.0,84,0.03,,,0.35,,2013-01-13 19:38:00,
2013-01-13 20:43:00,58.5,53.6,29.85,North,0,0.0,0.0,84,0.03,,,0.35,,2013-01-13 19:43:00,
2013-01-13 20:48:00,57.6,51.6,29.85,North,0,0.0,0.0,81,0.03,,,0.35,,2013-01-13 19:48:00,
2013-01-13 20:53:00,56.8,50.9,29.85,North,0,0.0,0.0,81,0.05,,,0.37,,2013-01-13 19:53:00,
2013-01-13 20:58:00,56.3,50.7,29.85,North,0,0.0,0.0,82,0.07,,,0.39,,2013-01-13 19:58:00,
2013-01-13 21:03:00,55.8,50.5,29.85,North,0,0.0,0.0,83,0.02,,,0.41,,2013-01-13 20:03:00,
2013-01-13 21:08:00,55.2,50.4,29.88,SE,135,15.2,15.2,84,0.07,,,0.46,,2013-01-13 20:08:00,
2013-01-13 21:13:00,54.9,50.0,29.88,SE,135,9.3,12.0,84,0.11,,,0.50,,2013-01-13 20:13:00,
2013-01-13 21:18:00,54.7,50.2,29.85,SE,135,10.2,11.1,85,0.13,,,0.52,,2013-01-13 20:18:00,
2013-01-13 21:23:00,54.7,50.2,29.85,SE,135,8.9,12.0,85,0.16,,,0.55,,2013-01-13 20:23:00,
2013-01-13 21:28:00,54.7,50.5,29.85,East,90,7.1,14.3,86,0.18,,,0.57,,2013-01-13 20:28:00,
2013-01-13 21:33:00,54.7,50.5,29.85,South,180,9.3,13.4,86,0.20,,,0.59,,2013-01-13 20:33:00,
2013-01-13 21:38:00,54.9,50.7,29.82,SSE,157,8.9,9.8,86,0.20,,,0.59,,2013-01-13 20:38:00,
2013-01-13 21:43:00,54.7,50.5,29.82,SE,135,7.1,9.8,86,0.22,,,0.61,,2013-01-13 20:43:00,
2013-01-13 21:48:00,54.7,50.5,29.82,SE,135,9.3,9.3,86,0.22,,,0.61,,2013-01-13 20:48:00,
2013-01-13 21:53:00,54.9,50.7,29.82,SE,135,5.3,5.3,86,0.22,,,0.61,,2013-01-13 20:53:00,
2013-01-13 21:58:00,55.0,50.9,29.85,SW,225,7.6,10.7,86,0.22,,,0.61,,2013-01-13 20:58:00,
2013-01-13 22:03:00,55.2,50.7,29.85,SE,135,9.3,9.8,85,0.00,,,0.61,,2013-01-13 21:03:00,
2013-01-13 22:08:00,55.4,50.5,29.85,South,180,8.0,8.5,84,0.00,,,0.61,,2013-01-13 21:08:00,
2013-01-13 22:13:00,55.4,50.5,29.85,South,180,8.0,12.9,84,0.00,,,0.61,,2013-01-13 21:13:00,
2013-01-13 22:18:00,55.6,50.7,29.85,SSW,202,7.1,8.9,84,0.00,,,0.61,,2013-01-13 21:18:00,
2013-01-13 22:23:00,55.4,50.5,29.85,SE,135,8.5,13.4,84,0.00,,,0.61,,2013-01-13 21:23:00,
2013-01-13 22:28:00,55.4,50.5,29.85,SE,135,8.9,13.4,84,0.03,,,0.64,,2013-01-13 21:28:00,
2013-01-13 22:33:00,55.2,50.7,29.85,SW,225,9.3,10.2,85,0.03,,,0.64,,2013-01-13 21:33:00,
2013-01-13 22:38:00,55.2,51.1,29.85,South,180,12.0,14.3,86,0.03,,,0.64,,2013-01-13 21:38:00,
2013-01-13 22:43:00,55.2,50.7,29.85,SE,135,9.3,12.5,85,0.03,,,0.64,,2013-01-13 21:43:00,
2013-01-13 22:48:00,55.2,51.1,29.85,SE,135,9.3,9.3,86,0.03,,,0.64,,2013-01-13 21:48:00,
2013-01-13 22:53:00,55.2,51.1,29.85,SE,135,8.0,0.0,86,0.03,,,0.64,,2013-01-13 21:53:00,
2013-01-13 22:58:00,55.2,51.1,29.88,ESE,112,9.8,10.2,86,0.03,,,0.64,,2013-01-13 21:58:00,
2013-01-13 23:03:00,55.0,50.9,29.88,South,180,8.0,11.6,86,0.00,,,0.64,,2013-01-13 22:03:00,
2013-01-13 23:08:00,55.0,50.9,29.85,South,180,8.9,11.6,86,0.02,,,0.66,,2013-01-13 22:08:00,
2013-01-13 23:13:00,55.0,50.9,29.85,East,90,8.0,13.4,86,0.02,,,0.66,,2013-01-13 22:13:00,
2013-01-13 23:18:00,55.0,50.9,29.85,SE,135,7.1,12.9,86,0.04,,,0.68,,2013-01-13 22:18:00,
2013-01-13 23:23:00,55.0,50.9,29.85,SE,135,8.5,12.9,86,0.06,,,0.70,,2013-01-13 22:23:00,
2013-01-13 23:28:00,54.9,50.7,29.85,SE,135,6.2,12.9,86,0.08,,,0.72,,2013-01-13 22:28:00,
2013-01-13 23:33:00,54.9,50.7,29.85,SE,135,6.2,12.9,86,0.11,,,0.75,,2013-01-13 22:33:00,
2013-01-13 23:38:00,54.9,50.7,29.85,SE,135,6.2,12.9,86,0.11,,,0.75,,2013-01-13 22:38:00,
2013-01-13 23:43:00,54.9,50.7,29.85,SE,135,5.8,12.9,86,0.11,,,0.75,,2013-01-13 22:43:00,
2013-01-13 23:48:00,54.9,50.7,29.85,SE,135,5.3,12.9,86,0.11,,,0.75,,2013-01-13 22:48:00,
2013-01-13 23:53:00,54.9,50.7,29.85,SE,135,5.3,12.9,86,0.11,,,0.75,,2013-01-13 22:53:00,
2013-01-13 23:58:00,54.7,50.5,29.82,SE,135,5.3,8.9,86,0.11,,,0.75,,2013-01-13 22:58:00,